createdAt,value
2022-11-17T06:41:21.543Z,500.00
2022-11-17T06:41:36.568Z,500.00
2022-11-17T06:41:51.487Z,500.00
2022-11-17T06:42:06.485Z,500.00
2022-11-17T06:42:21.472Z,500.00
2022-11-17T06:42:36.465Z,500.00
2022-11-17T06:42:51.443Z,500.00
2022-11-17T06:43:06.465Z,500.00
2022-11-17T06:43:21.483Z,500.00
2022-11-17T06:43:36.747Z,500.00
2022-11-17T06:43:51.487Z,500.00
2022-11-17T06:44:06.497Z,500.00
2022-11-17T06:46:48.968Z,500.00
2022-11-17T06:47:01.035Z,500.00
2022-11-17T06:47:16.045Z,500.00
2022-11-17T06:47:31.031Z,500.00
2022-11-17T06:47:46.041Z,500.00
2022-11-17T06:48:01.031Z,500.00
2022-11-17T06:48:15.996Z,500.00
2022-11-17T06:48:31.031Z,500.00
2022-11-17T06:48:46.011Z,500.00
2022-11-17T06:49:01.031Z,500.00
2022-11-17T06:49:16.005Z,500.00
2022-11-17T06:49:31.006Z,500.00
2022-11-17T06:49:46.035Z,500.00
2022-11-17T06:50:01.007Z,500.00
2022-11-17T06:50:16.112Z,500.00
2022-11-17T06:50:30.996Z,500.00
2022-11-17T06:50:45.977Z,500.00
2022-11-17T06:51:01.033Z,500.00
2022-11-17T06:51:16.031Z,500.00
2022-11-17T06:51:31.123Z,500.00
2022-11-17T06:51:45.994Z,500.00
2022-11-17T06:52:01.036Z,489.00
2022-11-17T06:52:15.991Z,468.00
2022-11-17T06:52:31.096Z,449.00
2022-11-17T06:52:46.033Z,445.00
2022-11-17T06:53:01.071Z,447.00
2022-11-17T06:53:16.043Z,457.00
2022-11-17T06:53:31.033Z,464.00
2022-11-17T06:53:45.998Z,458.00
2022-11-17T06:54:01.038Z,458.00
2022-11-17T06:54:16.048Z,443.00
2022-11-17T06:54:31.050Z,441.00
2022-11-17T06:54:46.032Z,450.00
2022-11-17T06:55:01.055Z,454.00
2022-11-17T06:55:16.009Z,455.00
2022-11-17T06:55:31.010Z,470.00
2022-11-17T06:55:46.003Z,470.00
2022-11-17T06:56:01.023Z,484.00
2022-11-17T06:56:15.999Z,489.00
2022-11-17T06:56:31.028Z,480.00
2022-11-17T06:56:46.027Z,457.00
2022-11-17T06:57:00.988Z,453.00
2022-11-17T06:57:16.033Z,472.00
2022-11-17T06:57:30.966Z,484.00
2022-11-17T06:57:51.847Z,484.00
2022-11-17T06:58:02.001Z,484.00
2022-11-17T06:58:15.972Z,484.00
2022-11-17T06:58:30.958Z,484.00
2022-11-17T06:58:46.012Z,485.00
2022-11-17T06:59:01.060Z,488.00
2022-11-17T06:59:16.052Z,488.00
2022-11-17T06:59:31.000Z,490.00
2022-11-17T06:59:46.011Z,495.00
2022-11-17T07:00:00.938Z,498.00
2022-11-17T07:00:15.992Z,508.00
2022-11-17T07:00:31.173Z,523.00
2022-11-17T07:00:46.077Z,530.00
2022-11-17T07:01:00.992Z,540.00
2022-11-17T07:01:16.052Z,549.00
2022-11-17T07:01:30.980Z,563.00
2022-11-17T07:01:45.991Z,592.00
2022-11-17T07:02:00.947Z,627.00
2022-11-17T07:02:15.970Z,664.00
2022-11-17T07:02:30.970Z,740.00
2022-11-17T07:02:45.958Z,797.00
2022-11-17T07:03:00.985Z,808.00
2022-11-17T07:03:15.947Z,816.00
2022-11-17T07:03:30.970Z,804.00
2022-11-17T07:03:45.968Z,785.00
2022-11-17T07:04:00.949Z,782.00
2022-11-17T07:04:15.934Z,785.00
2022-11-17T07:04:30.940Z,770.00
2022-11-17T07:04:45.978Z,782.00
2022-11-17T07:05:00.948Z,785.00
2022-11-17T07:05:15.964Z,771.00
2022-11-17T07:05:30.955Z,767.00
2022-11-17T07:05:45.958Z,771.00
2022-11-17T07:06:00.923Z,778.00
2022-11-17T07:06:15.957Z,741.00
2022-11-17T07:06:30.954Z,743.00
2022-11-17T07:06:45.963Z,749.00
2022-11-17T07:07:00.989Z,759.00
2022-11-17T07:07:15.961Z,744.00
2022-11-17T07:07:30.989Z,746.00
2022-11-17T07:07:45.944Z,764.00
2022-11-17T07:08:00.925Z,752.00
2022-11-17T07:08:15.944Z,752.00
2022-11-17T07:08:30.953Z,751.00
2022-11-17T07:08:45.945Z,742.00
2022-11-17T07:09:00.910Z,720.00
2022-11-17T07:09:15.942Z,721.00
2022-11-17T07:09:30.920Z,716.00
2022-11-17T07:09:45.948Z,711.00
2022-11-17T07:10:00.935Z,709.00
2022-11-17T07:10:15.917Z,697.00
2022-11-17T07:10:30.916Z,701.00
2022-11-17T07:10:49.230Z,693.00
2022-11-17T07:11:00.901Z,693.00
2022-11-17T07:11:15.925Z,693.00
2022-11-17T07:11:30.933Z,689.00
2022-11-17T07:11:45.941Z,678.00
2022-11-17T07:12:00.902Z,682.00
2022-11-17T07:12:15.915Z,667.00
2022-11-17T07:12:30.899Z,665.00
2022-11-17T07:12:45.889Z,661.00
2022-11-17T07:13:00.922Z,661.00
2022-11-17T07:13:15.936Z,656.00
2022-11-17T07:13:30.888Z,648.00
2022-11-17T07:13:45.915Z,645.00
2022-11-17T07:14:00.903Z,641.00
2022-11-17T07:14:15.893Z,641.00
2022-11-17T07:14:30.928Z,645.00
2022-11-17T07:14:45.917Z,642.00
2022-11-17T07:15:00.887Z,640.00
2022-11-17T07:15:15.929Z,638.00
2022-11-17T07:15:30.858Z,636.00
2022-11-17T07:15:45.856Z,637.00
2022-11-17T07:16:00.907Z,632.00
2022-11-17T07:16:21.701Z,629.00
2022-11-17T07:16:31.868Z,629.00
2022-11-17T07:16:45.877Z,629.00
2022-11-17T07:17:00.898Z,629.00
2022-11-17T07:17:15.900Z,629.00
2022-11-17T07:17:30.877Z,630.00
2022-11-17T07:17:45.833Z,628.00
2022-11-17T07:18:00.884Z,626.00
2022-11-17T07:18:15.883Z,621.00
2022-11-17T07:18:30.867Z,611.00
2022-11-17T07:18:45.870Z,605.00
2022-11-17T07:19:00.883Z,605.00
2022-11-17T07:19:15.864Z,610.00
2022-11-17T07:19:30.839Z,615.00
2022-11-17T07:19:45.884Z,604.00
2022-11-17T07:20:00.858Z,600.00
2022-11-17T07:20:15.875Z,602.00
2022-11-17T07:20:30.883Z,593.00
2022-11-17T07:20:45.871Z,583.00
2022-11-17T07:21:00.839Z,576.00
2022-11-17T07:21:15.868Z,579.00
2022-11-17T07:21:30.812Z,590.00
2022-11-17T07:21:45.834Z,591.00
2022-11-17T07:22:00.851Z,596.00
2022-11-17T07:22:15.854Z,589.00
2022-11-17T07:22:30.922Z,590.00
2022-11-17T07:22:45.867Z,590.00
2022-11-17T07:23:00.853Z,586.00
2022-11-17T07:23:15.828Z,584.00
2022-11-17T07:23:30.836Z,588.00
2022-11-17T07:23:45.935Z,584.00
2022-11-17T07:24:00.823Z,583.00
2022-11-17T07:24:15.881Z,571.00
2022-11-17T07:24:30.833Z,571.00
2022-11-17T07:24:45.851Z,566.00
2022-11-17T07:25:00.828Z,562.00
2022-11-17T07:25:21.070Z,568.00
2022-11-17T07:25:31.880Z,569.00
2022-11-17T07:25:45.824Z,569.00
2022-11-17T07:26:00.819Z,569.00
2022-11-17T07:26:15.807Z,569.00
2022-11-17T07:26:30.829Z,569.00
2022-11-17T07:26:45.838Z,569.00
2022-11-17T07:27:00.849Z,568.00
2022-11-17T07:27:15.840Z,557.00
2022-11-17T07:27:30.813Z,553.00
2022-11-17T07:27:45.844Z,550.00
2022-11-17T07:28:00.879Z,555.00
2022-11-17T07:28:15.823Z,556.00
2022-11-17T07:28:30.812Z,557.00
2022-11-17T07:28:45.831Z,583.00
2022-11-17T07:29:00.783Z,621.00
2022-11-17T07:29:15.761Z,606.00
2022-11-17T07:29:30.798Z,585.00
2022-11-17T07:29:45.835Z,574.00
2022-11-17T07:30:00.808Z,555.00
2022-11-17T07:30:15.818Z,547.00
2022-11-17T07:30:30.798Z,535.00
2022-11-17T07:30:45.815Z,532.00
2022-11-17T07:31:00.811Z,526.00
2022-11-17T07:31:15.814Z,518.00
2022-11-17T07:31:30.801Z,517.00
2022-11-17T07:31:45.831Z,509.00
2022-11-17T07:32:00.772Z,524.00
2022-11-17T07:32:15.798Z,507.00
2022-11-17T07:32:30.807Z,541.00
2022-11-17T07:32:48.440Z,548.00
2022-11-17T07:33:01.798Z,548.00
2022-11-17T07:33:15.788Z,509.00
2022-11-17T07:33:30.812Z,479.00
2022-11-17T07:33:45.829Z,474.00
2022-11-17T07:34:00.808Z,474.00
2022-11-17T07:34:15.799Z,478.00
2022-11-17T07:34:30.789Z,481.00
2022-11-17T07:34:45.773Z,495.00
2022-11-17T07:35:00.757Z,479.00
2022-11-17T07:35:15.773Z,470.00
2022-11-17T07:35:30.768Z,473.00
2022-11-17T07:35:45.794Z,592.00
2022-11-17T07:36:00.758Z,628.00
2022-11-17T07:36:15.788Z,980.00
2022-11-17T07:36:30.733Z,893.00
2022-11-17T07:36:45.758Z,588.00
2022-11-17T07:37:00.743Z,478.00
2022-11-17T07:37:15.793Z,466.00
2022-11-17T07:37:30.726Z,460.00
2022-11-17T07:37:45.774Z,463.00
2022-11-17T07:38:00.769Z,500.00
2022-11-17T07:38:15.748Z,519.00
2022-11-17T07:38:30.767Z,524.00
2022-11-17T07:38:45.753Z,511.00
2022-11-17T07:39:00.713Z,513.00
2022-11-17T07:39:21.024Z,513.00
2022-11-17T07:39:31.750Z,513.00
2022-11-17T07:39:45.747Z,514.00
2022-11-17T07:40:00.727Z,515.00
2022-11-17T07:40:15.787Z,516.00
2022-11-17T07:40:30.708Z,518.00
2022-11-17T07:40:45.768Z,524.00
2022-11-17T07:41:00.738Z,590.00
2022-11-17T07:41:15.725Z,783.00
2022-11-17T07:41:30.727Z,1135.00
2022-11-17T07:41:45.748Z,1484.00
2022-11-17T07:42:00.747Z,1844.00
2022-11-17T07:42:15.782Z,2231.00
2022-11-17T07:42:30.711Z,2647.00
2022-11-17T07:42:45.703Z,2739.00
2022-11-17T07:43:00.702Z,1626.00
2022-11-17T07:43:15.753Z,1096.00
2022-11-17T07:43:30.708Z,888.00
2022-11-17T07:43:45.712Z,745.00
2022-11-17T07:44:00.693Z,677.00
2022-11-17T07:44:15.701Z,664.00
2022-11-17T07:44:30.751Z,662.00
2022-11-17T07:44:45.730Z,693.00
2022-11-17T07:45:00.732Z,698.00
2022-11-17T07:45:15.726Z,661.00
2022-11-17T07:45:32.239Z,603.00
2022-11-17T07:45:45.712Z,557.00
2022-11-17T07:46:00.719Z,532.00
2022-11-17T07:46:15.692Z,516.00
2022-11-17T07:46:30.720Z,516.00
2022-11-17T07:46:45.698Z,520.00
2022-11-17T07:47:00.695Z,529.00
2022-11-17T07:47:15.708Z,527.00
2022-11-17T07:47:30.678Z,520.00
2022-11-17T07:47:45.707Z,521.00
2022-11-17T07:48:00.658Z,521.00
2022-11-17T07:48:15.723Z,517.00
2022-11-17T07:48:30.642Z,503.00
2022-11-17T07:48:45.731Z,514.00
2022-11-17T07:49:00.712Z,507.00
2022-11-17T07:49:15.719Z,512.00
2022-11-17T07:49:30.682Z,523.00
2022-11-17T07:49:45.697Z,530.00
2022-11-17T07:50:00.664Z,519.00
2022-11-17T07:50:15.694Z,507.00
2022-11-17T07:50:30.671Z,520.00
2022-11-17T07:50:45.712Z,525.00
2022-11-17T07:51:00.700Z,512.00
2022-11-17T07:51:15.657Z,512.00
2022-11-17T07:51:30.738Z,519.00
2022-11-17T07:51:45.642Z,531.00
2022-11-17T07:52:00.669Z,532.00
2022-11-17T07:52:15.670Z,534.00
2022-11-17T07:52:30.673Z,532.00
2022-11-17T07:52:45.650Z,526.00
2022-11-17T07:53:00.754Z,516.00
2022-11-17T07:53:15.693Z,512.00
2022-11-17T07:53:30.658Z,506.00
2022-11-17T07:53:45.720Z,505.00
2022-11-17T07:54:00.688Z,502.00
2022-11-17T07:54:15.693Z,498.00
2022-11-17T07:54:30.664Z,502.00
2022-11-17T07:54:45.683Z,500.00
2022-11-17T07:55:00.665Z,503.00
2022-11-17T07:55:15.645Z,501.00
2022-11-17T07:55:30.669Z,500.00
2022-11-17T07:55:45.683Z,504.00
2022-11-17T07:56:00.713Z,501.00
2022-11-17T07:56:15.690Z,501.00
2022-11-17T07:56:30.659Z,503.00
2022-11-17T07:56:45.645Z,505.00
2022-11-17T07:57:00.634Z,506.00
2022-11-17T07:57:15.638Z,507.00
2022-11-17T07:57:30.603Z,506.00
2022-11-17T07:57:45.648Z,503.00
2022-11-17T07:58:00.636Z,509.00
2022-11-17T07:58:15.627Z,509.00
2022-11-17T07:58:30.643Z,510.00
2022-11-17T07:58:45.648Z,511.00
2022-11-17T07:59:00.655Z,510.00
2022-11-17T07:59:21.020Z,512.00
2022-11-17T07:59:31.638Z,512.00
2022-11-17T07:59:45.626Z,513.00
2022-11-17T08:00:00.623Z,513.00
2022-11-17T08:00:15.647Z,513.00
2022-11-17T08:00:30.712Z,513.00
2022-11-17T08:00:45.655Z,513.00
2022-11-17T08:01:00.719Z,513.00
2022-11-17T08:01:15.803Z,514.00
2022-11-17T08:01:30.694Z,514.00
2022-11-17T08:01:45.572Z,514.00
2022-11-17T08:02:00.615Z,515.00
2022-11-17T08:02:15.617Z,515.00
2022-11-17T08:02:30.607Z,515.00
2022-11-17T08:02:45.602Z,516.00
2022-11-17T08:03:00.637Z,518.00
2022-11-17T08:03:15.679Z,518.00
2022-11-17T08:03:30.728Z,518.00
2022-11-17T08:03:45.813Z,520.00
2022-11-17T08:04:00.771Z,520.00
2022-11-17T08:04:15.924Z,518.00
2022-11-17T08:04:30.693Z,521.00
2022-11-17T08:04:46.220Z,519.00
2022-11-17T08:05:00.592Z,519.00
2022-11-17T08:05:15.598Z,523.00
2022-11-17T08:05:34.797Z,522.00
2022-11-17T08:05:45.652Z,522.00
2022-11-17T08:06:00.743Z,522.00
2022-11-17T08:06:15.574Z,522.00
2022-11-17T08:06:30.602Z,522.00
2022-11-17T08:06:45.672Z,522.00
2022-11-17T08:07:00.721Z,522.00
2022-11-17T08:07:15.795Z,520.00
2022-11-17T08:07:30.888Z,520.00
2022-11-17T08:07:45.740Z,519.00
2022-11-17T08:08:00.608Z,515.00
2022-11-17T08:08:15.640Z,517.00
2022-11-17T08:08:31.095Z,517.00
2022-11-17T08:08:45.607Z,510.00
2022-11-17T08:09:02.595Z,516.00
2022-11-17T08:09:15.603Z,532.00
2022-11-17T08:09:30.599Z,521.00
2022-11-17T08:09:46.537Z,516.00
2022-11-17T08:10:00.571Z,511.00
2022-11-17T08:10:15.587Z,511.00
2022-11-17T08:10:30.532Z,507.00
2022-11-17T08:10:45.577Z,509.00
2022-11-17T08:11:00.578Z,508.00
2022-11-17T08:11:16.726Z,507.00
2022-11-17T08:11:30.553Z,503.00
2022-11-17T08:11:45.555Z,503.00
2022-11-17T08:12:00.562Z,505.00
2022-11-17T08:12:15.538Z,505.00
2022-11-17T08:12:30.621Z,506.00
2022-11-17T08:12:45.612Z,506.00
2022-11-17T08:13:00.556Z,505.00
2022-11-17T08:13:15.569Z,505.00
2022-11-17T08:13:30.562Z,505.00
2022-11-17T08:13:45.510Z,505.00
2022-11-17T08:14:00.562Z,498.00
2022-11-17T08:14:15.566Z,501.00
2022-11-17T08:14:31.967Z,500.00
2022-11-17T08:14:45.755Z,501.00
2022-11-17T08:15:00.581Z,498.00
2022-11-17T08:15:15.853Z,495.00
2022-11-17T08:15:31.005Z,496.00
2022-11-17T08:15:45.553Z,498.00
2022-11-17T08:16:04.985Z,500.00
2022-11-17T08:16:16.697Z,505.00
2022-11-17T08:16:31.552Z,506.00
2022-11-17T08:16:45.540Z,505.00
2022-11-17T08:17:00.542Z,506.00
2022-11-17T08:17:15.532Z,506.00
2022-11-17T08:17:30.554Z,506.00
2022-11-17T08:17:45.558Z,506.00
2022-11-17T08:18:00.523Z,505.00
2022-11-17T08:18:15.531Z,505.00
2022-11-17T08:18:30.532Z,503.00
2022-11-17T08:18:51.825Z,499.00
2022-11-17T08:19:01.719Z,505.00
2022-11-17T08:19:16.942Z,506.00
2022-11-17T08:19:30.507Z,506.00
2022-11-17T08:19:45.660Z,505.00
2022-11-17T08:20:00.528Z,505.00
2022-11-17T08:20:15.517Z,502.00
2022-11-17T08:20:30.552Z,498.00
2022-11-17T08:20:45.521Z,496.00
2022-11-17T08:21:00.507Z,492.00
2022-11-17T08:21:15.522Z,494.00
2022-11-17T08:21:30.501Z,491.00
2022-11-17T08:21:45.552Z,488.00
2022-11-17T08:22:00.522Z,487.00
2022-11-17T08:22:15.493Z,489.00
2022-11-17T08:22:30.488Z,489.00
2022-11-17T08:22:45.517Z,488.00
2022-11-17T08:23:00.759Z,488.00
2022-11-17T08:23:22.761Z,486.00
2022-11-17T08:23:30.670Z,505.00
2022-11-17T08:23:45.674Z,506.00
2022-11-17T08:24:00.643Z,506.00
2022-11-17T08:24:15.752Z,505.00
2022-11-17T08:24:32.494Z,497.00
2022-11-17T08:24:46.452Z,506.00
2022-11-17T08:25:00.554Z,500.00
2022-11-17T08:25:15.503Z,495.00
2022-11-17T08:25:30.469Z,490.00
2022-11-17T08:25:45.490Z,487.00
2022-11-17T08:26:00.477Z,485.00
2022-11-17T08:26:15.433Z,483.00
2022-11-17T08:26:30.510Z,481.00
2022-11-17T08:26:45.491Z,469.00
2022-11-17T08:27:00.440Z,435.00
2022-11-17T08:27:15.487Z,413.00
2022-11-17T08:27:30.473Z,401.00
2022-11-17T08:27:45.467Z,400.00
2022-11-17T08:28:00.453Z,401.00
2022-11-17T08:28:15.497Z,403.00
2022-11-17T08:28:30.446Z,420.00
2022-11-17T08:28:45.476Z,419.00
2022-11-17T08:29:00.447Z,427.00
2022-11-17T08:29:15.436Z,441.00
2022-11-17T08:29:30.462Z,458.00
2022-11-17T08:29:45.463Z,468.00
2022-11-17T08:30:00.473Z,474.00
2022-11-17T08:30:15.456Z,496.00
2022-11-17T08:30:30.456Z,504.00
2022-11-17T08:30:45.443Z,511.00
2022-11-17T08:31:00.435Z,514.00
2022-11-17T08:31:15.454Z,506.00
2022-11-17T08:31:30.542Z,519.00
2022-11-17T08:31:45.523Z,526.00
2022-11-17T08:32:00.467Z,525.00
2022-11-17T08:32:15.422Z,521.00
2022-11-17T08:32:30.466Z,527.00
2022-11-17T08:32:45.453Z,536.00
2022-11-17T08:33:00.424Z,549.00
2022-11-17T08:33:15.450Z,529.00
2022-11-17T08:33:30.464Z,524.00
2022-11-17T08:33:45.439Z,529.00
2022-11-17T08:34:00.416Z,530.00
2022-11-17T08:34:15.413Z,536.00
2022-11-17T08:34:30.424Z,530.00
2022-11-17T08:34:45.448Z,520.00
2022-11-17T08:35:00.432Z,514.00
2022-11-17T08:35:15.431Z,519.00
2022-11-17T08:35:34.353Z,531.00
2022-11-17T08:35:46.459Z,531.00
2022-11-17T08:36:00.394Z,531.00
2022-11-17T08:36:15.430Z,531.00
2022-11-17T08:36:30.692Z,530.00
2022-11-17T08:36:45.403Z,531.00
2022-11-17T08:37:00.427Z,532.00
2022-11-17T08:37:15.443Z,532.00
2022-11-17T08:37:30.427Z,532.00
2022-11-17T08:37:45.432Z,529.00
2022-11-17T08:38:00.436Z,513.00
2022-11-17T08:38:15.450Z,501.00
2022-11-17T08:38:30.438Z,504.00
2022-11-17T08:38:45.368Z,517.00
2022-11-17T08:39:00.446Z,525.00
2022-11-17T08:39:15.428Z,511.00
2022-11-17T08:39:30.413Z,519.00
2022-11-17T08:39:45.378Z,525.00
2022-11-17T08:40:00.418Z,520.00
2022-11-17T08:40:15.374Z,516.00
2022-11-17T08:40:30.415Z,522.00
2022-11-17T08:40:45.413Z,531.00
2022-11-17T08:41:00.473Z,530.00
2022-11-17T08:41:15.405Z,525.00
2022-11-17T08:41:30.386Z,522.00
2022-11-17T08:41:45.375Z,507.00
2022-11-17T08:42:00.362Z,504.00
2022-11-17T08:42:15.532Z,503.00
2022-11-17T08:42:30.379Z,506.00
2022-11-17T08:42:45.387Z,506.00
2022-11-17T08:43:01.543Z,500.00
2022-11-17T08:43:15.420Z,511.00
2022-11-17T08:43:30.364Z,524.00
2022-11-17T08:43:45.609Z,524.00
2022-11-17T08:44:00.396Z,526.00
2022-11-17T08:44:15.470Z,516.00
2022-11-17T08:44:30.675Z,512.00
2022-11-17T08:44:45.367Z,523.00
2022-11-17T08:45:00.367Z,525.00
2022-11-17T08:45:15.387Z,505.00
2022-11-17T08:45:30.362Z,504.00
2022-11-17T08:45:45.351Z,503.00
2022-11-17T08:46:00.387Z,520.00
2022-11-17T08:46:15.343Z,521.00
2022-11-17T08:46:30.339Z,524.00
2022-11-17T08:46:45.423Z,521.00
2022-11-17T08:47:00.502Z,525.00
2022-11-17T08:47:15.348Z,522.00
2022-11-17T08:47:30.323Z,523.00
2022-11-17T08:47:45.381Z,519.00
2022-11-17T08:48:00.325Z,517.00
2022-11-17T08:48:15.333Z,514.00
2022-11-17T08:48:30.332Z,516.00
2022-11-17T08:48:45.327Z,519.00
2022-11-17T08:49:00.323Z,519.00
2022-11-17T08:49:15.336Z,518.00
2022-11-17T08:49:30.328Z,524.00
2022-11-17T08:49:45.313Z,518.00
2022-11-17T08:50:00.348Z,530.00
2022-11-17T08:50:15.332Z,527.00
2022-11-17T08:50:30.317Z,534.00
2022-11-17T08:50:46.016Z,543.00
2022-11-17T08:51:00.349Z,535.00
2022-11-17T08:51:15.345Z,522.00
2022-11-17T08:51:30.323Z,519.00
2022-11-17T08:51:45.287Z,516.00
2022-11-17T08:52:00.344Z,516.00
2022-11-17T08:52:15.316Z,515.00
2022-11-17T08:52:30.317Z,518.00
2022-11-17T08:52:45.318Z,518.00
